createdAt,value
2018-05-18T00:00:49.292Z,91.80
2018-05-18T00:03:16.846Z,92.10
2018-05-18T00:05:44.417Z,92.10
2018-05-18T00:08:12.764Z,92.50
2018-05-18T00:10:40.349Z,92.40
2018-05-18T00:13:07.918Z,92.50
2018-05-18T00:15:35.533Z,92.30
2018-05-18T00:18:03.072Z,92.20
2018-05-18T00:20:30.679Z,92.20
2018-05-18T00:22:58.257Z,92.20
2018-05-18T00:25:25.846Z,92.20
2018-05-18T00:27:53.418Z,92.30
2018-05-18T00:30:20.973Z,92.70
2018-05-18T00:32:48.743Z,92.80
2018-05-18T00:35:16.374Z,92.90
2018-05-18T00:37:43.837Z,92.70
2018-05-18T00:40:11.390Z,92.90
2018-05-18T00:42:38.928Z,92.90
2018-05-18T00:45:06.684Z,93.20
2018-05-18T00:47:34.972Z,93.30
2018-05-18T00:50:02.525Z,93.30
2018-05-18T00:52:30.063Z,93.40
2018-05-18T00:54:58.394Z,93.50
2018-05-18T00:57:25.908Z,93.50
2018-05-18T00:59:53.446Z,93.50
2018-05-18T01:02:21.804Z,93.70
2018-05-18T01:04:49.361Z,93.80
2018-05-18T01:07:16.925Z,93.90
2018-05-18T01:09:44.484Z,93.90
2018-05-18T01:12:12.058Z,93.90
2018-05-18T01:14:39.652Z,94.30
2018-05-18T01:17:07.211Z,94.10
2018-05-18T01:19:35.611Z,94.50
2018-05-18T01:22:03.136Z,94.50
2018-05-18T01:24:30.678Z,94.50
2018-05-18T01:26:58.997Z,94.80
2018-05-18T01:29:26.610Z,94.60
2018-05-18T01:31:54.152Z,94.60
2018-05-18T01:34:21.743Z,94.70
2018-05-18T01:36:50.052Z,94.70
2018-05-18T01:39:17.580Z,94.60
2018-05-18T01:41:45.884Z,94.70
2018-05-18T01:44:13.499Z,94.70
2018-05-18T01:46:41.102Z,94.90
2018-05-18T01:49:08.627Z,94.80
2018-05-18T01:51:36.965Z,95.00
2018-05-18T01:54:04.552Z,95.00
2018-05-18T01:56:32.018Z,95.10
2018-05-18T01:59:00.354Z,95.10
2018-05-18T02:01:27.891Z,95.10
2018-05-18T02:03:55.469Z,95.10
2018-05-18T02:06:23.009Z,95.20
2018-05-18T02:08:50.554Z,95.30
2018-05-18T02:11:18.096Z,95.20
2018-05-18T02:13:46.964Z,95.30
2018-05-18T02:16:14.584Z,95.20
2018-05-18T02:18:42.153Z,95.30
2018-05-18T02:21:09.696Z,95.50
2018-05-18T02:23:37.250Z,95.40
2018-05-18T02:26:04.773Z,95.90
2018-05-18T02:28:33.093Z,95.60
2018-05-18T02:31:00.732Z,95.60
2018-05-18T02:33:28.323Z,95.60
2018-05-18T02:35:55.864Z,95.60
2018-05-18T02:38:24.174Z,94.90
2018-05-18T02:40:51.708Z,94.80
2018-05-18T02:43:19.256Z,95.20
2018-05-18T02:45:46.843Z,95.40
2018-05-18T02:48:14.404Z,95.30
2018-05-18T02:50:41.984Z,95.40
2018-05-18T02:53:09.568Z,95.50
2018-05-18T02:55:38.394Z,95.50
2018-05-18T02:58:05.940Z,95.50
2018-05-18T03:00:33.482Z,95.30
2018-05-18T03:03:01.048Z,95.40
2018-05-18T03:05:28.616Z,95.50
2018-05-18T03:07:56.951Z,95.30
2018-05-18T03:10:25.356Z,95.80
2018-05-18T03:12:53.648Z,95.40
2018-05-18T03:15:21.185Z,95.40
2018-05-18T03:17:49.489Z,95.40
2018-05-18T03:20:17.042Z,95.40
2018-05-18T03:22:44.584Z,95.30
2018-05-18T03:25:12.188Z,95.70
2018-05-18T03:27:39.716Z,95.40
2018-05-18T03:30:07.278Z,95.60
2018-05-18T03:32:34.844Z,95.50
2018-05-18T03:35:02.389Z,95.60
2018-05-18T03:37:29.994Z,95.70
2018-05-18T03:39:57.531Z,95.50
2018-05-18T03:42:25.055Z,95.50
2018-05-18T03:44:52.598Z,95.60
2018-05-18T03:47:20.195Z,95.50
2018-05-18T03:49:47.740Z,95.50
2018-05-18T03:52:15.293Z,95.50
2018-05-18T03:54:42.900Z,95.60
2018-05-18T03:57:10.515Z,95.60
2018-05-18T03:59:38.071Z,96.10
2018-05-18T04:02:17.570Z,95.90
2018-05-18T04:04:57.019Z,96.10
2018-05-18T04:07:37.364Z,96.50
2018-05-18T04:10:04.909Z,96.50
2018-05-18T04:12:32.510Z,96.60
2018-05-18T04:15:00.836Z,96.90
2018-05-18T04:17:28.399Z,96.90
2018-05-18T04:19:56.037Z,96.90
2018-05-18T04:22:24.246Z,96.80
2018-05-18T04:24:51.813Z,96.80
2018-05-18T04:27:19.356Z,97.00
2018-05-18T04:29:46.901Z,96.70
2018-05-18T04:32:14.477Z,96.80
2018-05-18T04:34:42.107Z,96.80
2018-05-18T04:37:09.662Z,96.70
2018-05-18T04:39:37.222Z,96.60
2018-05-18T04:42:04.780Z,96.30
2018-05-18T04:44:32.352Z,96.50
2018-05-18T04:46:59.891Z,96.80
2018-05-18T04:49:28.238Z,96.70
2018-05-18T04:51:56.550Z,95.50
2018-05-18T04:54:24.087Z,95.50
2018-05-18T04:56:51.637Z,94.70
2018-05-18T04:59:19.989Z,95.90
2018-05-18T05:01:47.610Z,95.90
2018-05-18T05:04:15.168Z,97.40
2018-05-18T05:06:42.834Z,98.10
2018-05-18T05:09:10.371Z,96.30
2018-05-18T05:11:37.897Z,92.80
2018-05-18T05:14:05.414Z,90.10
2018-05-18T05:16:32.956Z,88.30
2018-05-18T05:19:00.501Z,86.30
2018-05-18T05:21:28.026Z,85.90
2018-05-18T05:23:55.580Z,86.40
2018-05-18T05:26:23.136Z,86.20
2018-05-18T05:28:50.676Z,84.90
2018-05-18T05:31:18.240Z,83.80
2018-05-18T05:33:45.908Z,80.60
2018-05-18T05:36:13.577Z,78.30
2018-05-18T05:38:41.126Z,75.60
2018-05-18T05:41:08.670Z,75.80
2018-05-18T05:43:36.224Z,75.80
2018-05-18T05:46:03.777Z,75.90
2018-05-18T05:48:31.336Z,75.20
2018-05-18T05:50:58.877Z,74.60
2018-05-18T05:53:26.452Z,74.60
2018-05-18T05:55:53.994Z,73.80
2018-05-18T05:58:21.571Z,72.90
2018-05-18T06:00:49.229Z,72.50
2018-05-18T06:03:16.774Z,71.50
2018-05-18T06:05:44.324Z,70.00
2018-05-18T06:08:12.021Z,68.70
2018-05-18T06:10:39.565Z,69.00
2018-05-18T06:13:07.137Z,67.60
2018-05-18T06:15:34.724Z,66.50
2018-05-18T06:18:02.265Z,66.90
2018-05-18T06:20:29.806Z,66.00
2018-05-18T06:22:57.350Z,64.40
2018-05-18T06:25:24.896Z,65.00
2018-05-18T06:27:52.504Z,66.30
2018-05-18T06:30:20.055Z,67.70
2018-05-18T06:32:47.639Z,66.30
2018-05-18T06:35:15.291Z,64.70
2018-05-18T06:37:42.761Z,63.60
2018-05-18T06:40:11.109Z,64.00
2018-05-18T06:42:38.686Z,63.80
2018-05-18T06:45:06.256Z,63.30
2018-05-18T06:47:33.789Z,62.90
2018-05-18T06:50:01.472Z,62.10
2018-05-18T06:52:30.169Z,64.40
2018-05-18T06:54:57.682Z,66.70
2018-05-18T06:57:25.219Z,66.30
2018-05-18T06:59:52.800Z,65.60
2018-05-18T07:02:20.384Z,64.50
2018-05-18T07:04:47.957Z,62.10
2018-05-18T07:07:16.296Z,59.90
2018-05-18T07:09:43.856Z,59.20
2018-05-18T07:12:11.412Z,59.00
2018-05-18T07:14:38.970Z,58.50
2018-05-18T07:17:06.542Z,57.50
2018-05-18T07:19:34.132Z,57.70
2018-05-18T07:22:01.770Z,57.70
2018-05-18T07:24:29.327Z,58.10
2018-05-18T07:26:56.876Z,57.90
2018-05-18T07:29:24.414Z,55.90
2018-05-18T07:31:51.958Z,55.90
2018-05-18T07:34:19.495Z,56.70
2018-05-18T07:36:47.082Z,56.50
2018-05-18T07:39:14.636Z,55.00
2018-05-18T07:41:42.248Z,56.10
2018-05-18T07:44:09.845Z,56.40
2018-05-18T07:46:37.381Z,56.10
2018-05-18T07:49:04.918Z,55.30
2018-05-18T07:51:32.488Z,55.80
2018-05-18T07:54:00.052Z,55.20
2018-05-18T07:56:27.613Z,55.20
2018-05-18T07:58:55.923Z,54.20
2018-05-18T08:01:23.607Z,54.10
2018-05-18T08:03:51.069Z,54.00
2018-05-18T08:06:18.617Z,54.70
2018-05-18T08:08:46.181Z,53.60
2018-05-18T08:11:13.773Z,55.30
2018-05-18T08:13:41.303Z,56.00
2018-05-18T08:16:08.854Z,57.00
2018-05-18T08:18:36.412Z,58.70
2018-05-18T08:21:03.988Z,56.90
2018-05-18T08:23:41.280Z,55.90
2018-05-18T08:26:09.660Z,55.20
2018-05-18T08:28:49.205Z,55.90
2018-05-18T08:31:16.843Z,55.00
2018-05-18T08:33:44.388Z,55.60
2018-05-18T08:36:11.924Z,55.20
2018-05-18T08:38:39.469Z,55.80
2018-05-18T08:41:07.776Z,55.40
2018-05-18T08:43:35.321Z,55.40
2018-05-18T08:46:02.848Z,55.80
2018-05-18T08:48:30.417Z,54.20
2018-05-18T08:50:58.029Z,54.20
2018-05-18T08:53:25.605Z,54.50
2018-05-18T08:55:53.155Z,54.30
2018-05-18T08:58:20.753Z,53.30
2018-05-18T09:00:49.059Z,55.00
2018-05-18T09:03:16.593Z,55.00
2018-05-18T09:05:44.144Z,54.80
2018-05-18T09:08:12.461Z,55.10
2018-05-18T09:10:40.766Z,54.90
2018-05-18T09:13:08.336Z,55.00
2018-05-18T09:15:35.864Z,53.10
2018-05-18T09:18:03.441Z,52.50
2018-05-18T09:20:31.104Z,51.10
2018-05-18T09:22:58.659Z,49.60
2018-05-18T09:25:26.227Z,48.20
2018-05-18T09:27:53.777Z,48.40
2018-05-18T09:30:21.336Z,46.60
2018-05-18T09:32:48.904Z,44.40
2018-05-18T09:35:16.453Z,44.70
2018-05-18T09:37:44.036Z,45.90
2018-05-18T09:40:11.581Z,47.00
2018-05-18T09:42:39.130Z,48.00
2018-05-18T09:45:06.789Z,47.90
2018-05-18T09:47:34.247Z,47.40
2018-05-18T09:50:01.813Z,47.20
2018-05-18T09:52:29.357Z,48.30
2018-05-18T09:54:57.139Z,47.70
2018-05-18T09:57:24.448Z,47.60
2018-05-18T09:59:52.049Z,46.20
2018-05-18T10:02:19.590Z,45.30
2018-05-18T10:04:47.141Z,46.40
2018-05-18T10:07:14.709Z,46.70
2018-05-18T10:09:42.293Z,46.50
2018-05-18T10:12:09.857Z,46.80
2018-05-18T10:14:37.401Z,44.50
2018-05-18T10:17:04.958Z,44.60
2018-05-18T10:19:32.518Z,45.50
2018-05-18T10:22:00.085Z,45.80
2018-05-18T10:24:27.649Z,45.90
2018-05-18T10:26:55.263Z,46.30
2018-05-18T10:29:22.726Z,46.70
2018-05-18T10:31:50.260Z,45.90
2018-05-18T10:34:17.812Z,46.90
2018-05-18T10:36:45.373Z,44.90
2018-05-18T10:39:12.939Z,45.20
2018-05-18T10:41:40.598Z,46.20
2018-05-18T10:44:08.128Z,47.80
2018-05-18T10:46:36.448Z,47.90
2018-05-18T10:49:03.976Z,47.90
2018-05-18T10:51:31.530Z,47.40
2018-05-18T10:53:59.866Z,47.80
2018-05-18T10:56:27.426Z,47.80
2018-05-18T10:58:54.975Z,47.10
2018-05-18T11:01:22.517Z,48.30
2018-05-18T11:03:50.056Z,48.10
2018-05-18T11:06:17.604Z,48.00
2018-05-18T11:08:45.204Z,48.40
2018-05-18T11:11:12.758Z,46.40
2018-05-18T11:13:40.304Z,46.40
2018-05-18T11:16:07.874Z,46.80
2018-05-18T11:18:35.404Z,45.20
2018-05-18T11:21:02.973Z,46.10
2018-05-18T11:23:30.521Z,44.40
2018-05-18T11:25:58.065Z,45.60
2018-05-18T11:28:26.361Z,46.00
2018-05-18T11:30:55.033Z,46.00
2018-05-18T11:33:23.334Z,48.10
2018-05-18T11:35:50.874Z,48.10
2018-05-18T11:38:18.433Z,47.00
2018-05-18T11:40:45.986Z,47.00
2018-05-18T11:43:14.291Z,47.80
2018-05-18T11:45:41.839Z,47.70
2018-05-18T11:48:09.394Z,46.20
2018-05-18T11:50:36.929Z,46.20
2018-05-18T11:53:04.469Z,46.80
2018-05-18T11:55:32.009Z,46.80
2018-05-18T11:57:59.563Z,46.90
2018-05-18T12:00:27.104Z,47.70
2018-05-18T12:02:54.661Z,46.70
2018-05-18T12:05:22.189Z,46.50
2018-05-18T12:07:50.507Z,45.70
2018-05-18T12:10:18.053Z,45.60
2018-05-18T12:12:45.636Z,45.00
2018-05-18T12:15:13.193Z,45.40
2018-05-18T12:17:40.914Z,43.80
2018-05-18T12:20:08.464Z,46.20
2018-05-18T12:22:36.772Z,44.60
2018-05-18T12:25:04.317Z,44.60
2018-05-18T12:27:31.853Z,44.20
2018-05-18T12:30:00.157Z,41.80
2018-05-18T12:32:27.708Z,41.80
2018-05-18T12:34:55.282Z,41.80
2018-05-18T12:37:22.821Z,41.70
2018-05-18T12:39:50.406Z,42.50
2018-05-18T12:42:17.949Z,41.70
2018-05-18T12:44:45.631Z,39.50
2018-05-18T12:47:13.085Z,42.10
2018-05-18T12:49:40.632Z,39.00
2018-05-18T12:52:08.404Z,42.30
2018-05-18T12:54:35.938Z,40.10
2018-05-18T12:57:03.483Z,41.40
2018-05-18T12:59:31.842Z,40.70
2018-05-18T13:01:59.348Z,40.70
2018-05-18T13:04:26.913Z,40.70
2018-05-18T13:06:55.236Z,42.60
2018-05-18T13:09:22.777Z,42.60
2018-05-18T13:11:50.453Z,41.10
2018-05-18T13:14:17.984Z,41.60
2018-05-18T13:16:45.526Z,41.90
2018-05-18T13:19:13.075Z,43.30
2018-05-18T13:21:40.600Z,42.40
2018-05-18T13:24:08.918Z,45.10
2018-05-18T13:26:36.517Z,45.10
2018-05-18T13:29:04.069Z,43.30
2018-05-18T13:31:31.645Z,43.60
2018-05-18T13:33:59.191Z,44.70
2018-05-18T13:36:26.740Z,45.70
2018-05-18T13:38:54.381Z,42.50
2018-05-18T13:41:21.827Z,41.50
2018-05-18T13:43:49.413Z,41.70
2018-05-18T13:46:16.950Z,40.80
2018-05-18T13:48:44.505Z,41.10
2018-05-18T13:51:12.098Z,40.10
2018-05-18T13:53:40.032Z,39.70
2018-05-18T13:56:07.675Z,38.10
2018-05-18T13:58:35.257Z,37.70
2018-05-18T14:01:02.813Z,38.20
2018-05-18T14:03:31.130Z,38.10
2018-05-18T14:05:58.754Z,38.00
2018-05-18T14:08:26.298Z,41.80
2018-05-18T14:10:53.859Z,42.10
2018-05-18T14:13:21.402Z,42.20
2018-05-18T14:15:48.942Z,42.70
2018-05-18T14:18:16.496Z,43.40
2018-05-18T14:20:44.823Z,37.70
2018-05-18T14:23:12.358Z,37.60
2018-05-18T14:25:39.905Z,37.70
2018-05-18T14:28:07.432Z,38.50
2018-05-18T14:30:34.987Z,38.80
2018-05-18T14:33:02.518Z,37.00
2018-05-18T14:35:30.066Z,37.30
2018-05-18T14:37:57.627Z,36.70
2018-05-18T14:40:25.133Z,37.20
2018-05-18T14:42:52.695Z,38.80
2018-05-18T14:45:20.243Z,38.70
2018-05-18T14:47:47.772Z,39.50
2018-05-18T14:50:15.320Z,37.30
2018-05-18T14:52:42.864Z,37.60
2018-05-18T14:55:10.417Z,40.10
2018-05-18T14:57:37.969Z,39.20
2018-05-18T15:00:05.630Z,39.30
2018-05-18T15:02:33.168Z,40.10
2018-05-18T15:05:01.485Z,39.70
2018-05-18T15:07:29.041Z,39.60
2018-05-18T15:09:56.582Z,39.80
2018-05-18T15:12:24.117Z,40.10
2018-05-18T15:14:51.648Z,40.00
2018-05-18T15:17:19.213Z,40.90
2018-05-18T15:19:46.758Z,39.70
2018-05-18T15:22:14.347Z,40.10
2018-05-18T15:24:42.105Z,39.50
2018-05-18T15:27:09.681Z,39.80
2018-05-18T15:29:37.976Z,39.90
2018-05-18T15:32:05.537Z,39.90
2018-05-18T15:34:33.069Z,39.00
2018-05-18T15:37:01.424Z,38.80
2018-05-18T15:39:28.969Z,38.80
2018-05-18T15:41:57.304Z,38.40
2018-05-18T15:44:24.846Z,39.10
2018-05-18T15:46:53.198Z,40.30
2018-05-18T15:49:20.739Z,40.30
2018-05-18T15:51:48.268Z,38.20
2018-05-18T15:54:15.797Z,37.60
2018-05-18T15:56:44.119Z,38.50
2018-05-18T15:59:11.678Z,38.50
2018-05-18T16:01:39.249Z,38.70
2018-05-18T16:04:06.874Z,38.70
2018-05-18T16:06:34.396Z,39.10
2018-05-18T16:09:01.943Z,39.70
2018-05-18T16:11:29.472Z,40.20
2018-05-18T16:13:57.027Z,39.90
2018-05-18T16:16:24.554Z,38.30
2018-05-18T16:18:52.131Z,38.50
2018-05-18T16:21:19.689Z,38.90
2018-05-18T16:23:47.221Z,39.50
2018-05-18T16:26:15.527Z,38.70
2018-05-18T16:28:43.053Z,38.60
2018-05-18T16:31:10.596Z,38.70
2018-05-18T16:33:38.120Z,39.30
2018-05-18T16:36:06.138Z,38.60
2018-05-18T16:38:34.820Z,38.30
2018-05-18T16:41:03.117Z,39.30
2018-05-18T16:43:30.668Z,39.30
2018-05-18T16:45:58.203Z,38.20
2018-05-18T16:48:25.762Z,39.30
2018-05-18T16:50:53.290Z,38.10
2018-05-18T16:53:20.857Z,37.50
2018-05-18T16:55:48.542Z,38.00
2018-05-18T16:58:16.087Z,38.20
2018-05-18T17:00:43.613Z,37.50
2018-05-18T17:03:11.166Z,37.00
2018-05-18T17:05:38.693Z,36.60
2018-05-18T17:08:07.093Z,36.10
2018-05-18T17:10:34.577Z,36.00
2018-05-18T17:13:02.135Z,36.20
2018-05-18T17:15:29.684Z,35.80
2018-05-18T17:17:57.216Z,35.60
2018-05-18T17:20:24.777Z,35.40
2018-05-18T17:22:52.313Z,34.60
2018-05-18T17:25:19.975Z,34.50
2018-05-18T17:27:47.528Z,35.10
2018-05-18T17:30:15.140Z,35.00
2018-05-18T17:32:42.709Z,34.90
2018-05-18T17:35:10.272Z,35.70
2018-05-18T17:37:37.837Z,36.60
2018-05-18T17:40:05.725Z,36.80
2018-05-18T17:42:33.472Z,37.10
2018-05-18T17:45:01.787Z,38.60
2018-05-18T17:47:29.334Z,38.90
2018-05-18T17:49:56.927Z,39.90
2018-05-18T17:52:24.458Z,42.30
2018-05-18T17:54:52.789Z,45.40
2018-05-18T17:57:20.326Z,45.30
2018-05-18T17:59:47.909Z,46.40
2018-05-18T18:02:16.260Z,47.10
2018-05-18T18:04:43.814Z,47.10
2018-05-18T18:07:11.359Z,47.60
2018-05-18T18:09:38.917Z,48.10
2018-05-18T18:12:06.454Z,48.70
2018-05-18T18:14:34.021Z,49.20
2018-05-18T18:17:02.332Z,50.00
2018-05-18T18:19:30.060Z,50.00
2018-05-18T18:21:58.394Z,51.10
2018-05-18T18:24:25.936Z,51.10
2018-05-18T18:26:53.501Z,51.50
2018-05-18T18:29:21.056Z,51.50
2018-05-18T18:31:48.613Z,51.90
2018-05-18T18:34:16.221Z,52.30
2018-05-18T18:36:43.766Z,52.90
2018-05-18T18:39:11.301Z,53.20
2018-05-18T18:41:38.930Z,53.90
2018-05-18T18:44:06.499Z,54.80
2018-05-18T18:46:34.099Z,55.80
2018-05-18T18:49:01.694Z,56.40
2018-05-18T18:51:29.257Z,57.20
2018-05-18T18:53:56.820Z,57.50
2018-05-18T18:56:24.376Z,58.30
2018-05-18T18:58:51.943Z,58.90
2018-05-18T19:01:20.283Z,60.00
2018-05-18T19:03:47.823Z,60.00
2018-05-18T19:06:15.388Z,60.30
2018-05-18T19:08:42.955Z,61.00
2018-05-18T19:11:10.501Z,61.50
2018-05-18T19:13:38.068Z,62.00
2018-05-18T19:16:05.658Z,62.30
2018-05-18T19:18:33.229Z,62.80
2018-05-18T19:21:00.814Z,63.00
2018-05-18T19:23:28.364Z,63.40
2018-05-18T19:25:55.929Z,63.60
2018-05-18T19:28:24.245Z,64.30
2018-05-18T19:30:51.777Z,64.30
2018-05-18T19:33:19.321Z,64.60
2018-05-18T19:35:46.902Z,64.90
2018-05-18T19:38:14.484Z,65.30
2018-05-18T19:40:43.263Z,65.60
2018-05-18T19:43:10.805Z,65.90
2018-05-18T19:45:38.373Z,66.30
2018-05-18T19:48:05.934Z,66.70
2018-05-18T19:50:33.493Z,67.20
2018-05-18T19:53:01.047Z,67.30
2018-05-18T19:55:28.654Z,67.40
2018-05-18T19:57:56.265Z,68.10
2018-05-18T20:00:23.873Z,68.30
2018-05-18T20:02:51.432Z,68.80
2018-05-18T20:05:19.010Z,69.50
2018-05-18T20:07:46.585Z,70.00
2018-05-18T20:10:14.146Z,70.70
2018-05-18T20:12:41.681Z,70.70
2018-05-18T20:15:09.247Z,71.10
2018-05-18T20:17:36.788Z,71.70
2018-05-18T20:20:04.357Z,71.70
2018-05-18T20:22:31.926Z,72.20
2018-05-18T20:24:59.547Z,72.00
2018-05-18T20:27:27.045Z,72.50
2018-05-18T20:29:54.603Z,72.70
2018-05-18T20:32:22.164Z,72.70
2018-05-18T20:34:49.722Z,73.60
2018-05-18T20:37:17.251Z,73.70
2018-05-18T20:39:45.300Z,74.10
2018-05-18T20:42:12.888Z,74.50
2018-05-18T20:44:40.438Z,75.30
2018-05-18T20:47:08.778Z,75.90
2018-05-18T20:49:36.425Z,75.80
2018-05-18T20:52:03.973Z,76.20
2018-05-18T20:54:31.544Z,76.20
2018-05-18T20:56:59.080Z,76.50
2018-05-18T20:59:26.643Z,77.90
2018-05-18T21:01:54.205Z,78.40
2018-05-18T21:04:21.819Z,79.00
2018-05-18T21:06:50.630Z,80.00
2018-05-18T21:09:18.190Z,79.90
2018-05-18T21:11:45.724Z,80.40
2018-05-18T21:14:14.054Z,81.60
2018-05-18T21:16:41.700Z,81.50
2018-05-18T21:19:09.290Z,82.40
2018-05-18T21:21:37.652Z,82.70
2018-05-18T21:24:05.232Z,82.60
2018-05-18T21:26:32.776Z,83.20
2018-05-18T21:29:00.350Z,83.60
2018-05-18T21:31:27.905Z,83.50
2018-05-18T21:33:55.512Z,83.60
2018-05-18T21:36:23.136Z,83.60
2018-05-18T21:38:50.725Z,83.70
2018-05-18T21:41:19.064Z,85.00
2018-05-18T21:43:46.636Z,85.00
2018-05-18T21:46:14.226Z,85.50
2018-05-18T21:48:41.854Z,85.90
2018-05-18T21:51:09.401Z,86.10
2018-05-18T21:53:36.996Z,86.20
2018-05-18T21:56:04.557Z,87.60
2018-05-18T21:58:32.167Z,87.40
2018-05-18T22:01:00.432Z,88.30
2018-05-18T22:03:28.005Z,88.30
2018-05-18T22:05:55.558Z,88.00
2018-05-18T22:08:23.125Z,88.30
2018-05-18T22:10:50.676Z,88.80
2018-05-18T22:13:18.244Z,89.00
2018-05-18T22:15:45.823Z,88.60
2018-05-18T22:18:13.445Z,88.00
2018-05-18T22:20:40.991Z,88.60
2018-05-18T22:23:08.655Z,88.70
2018-05-18T22:25:36.194Z,89.00
2018-05-18T22:28:03.787Z,90.00
2018-05-18T22:30:31.346Z,90.10
2018-05-18T22:32:58.924Z,90.20
2018-05-18T22:35:26.493Z,90.50
2018-05-18T22:37:54.104Z,90.50
2018-05-18T22:40:21.663Z,90.70
2018-05-18T22:42:49.236Z,90.40
2018-05-18T22:45:16.780Z,90.50
2018-05-18T22:47:44.363Z,90.50
2018-05-18T22:50:11.898Z,90.80
2018-05-18T22:52:40.221Z,91.30
2018-05-18T22:55:07.770Z,91.30
2018-05-18T22:57:35.340Z,91.40
2018-05-18T23:00:02.895Z,91.10
2018-05-18T23:02:30.444Z,91.00
2018-05-18T23:04:58.005Z,91.20
2018-05-18T23:07:25.570Z,91.30
2018-05-18T23:09:53.133Z,91.40
2018-05-18T23:12:20.685Z,91.60
2018-05-18T23:14:48.221Z,92.00
2018-05-18T23:17:15.769Z,92.10
2018-05-18T23:19:43.333Z,92.40
2018-05-18T23:22:11.454Z,92.40
2018-05-18T23:24:39.032Z,92.40
2018-05-18T23:27:06.653Z,92.70
2018-05-18T23:29:34.216Z,92.60
2018-05-18T23:32:01.771Z,93.00
2018-05-18T23:34:29.327Z,92.90
2018-05-18T23:36:56.879Z,93.00
2018-05-18T23:39:24.432Z,93.00
2018-05-18T23:41:51.988Z,93.20
2018-05-18T23:44:19.562Z,93.10
2018-05-18T23:46:47.099Z,93.20
2018-05-18T23:49:14.651Z,93.40
2018-05-18T23:51:42.203Z,93.50
2018-05-18T23:54:09.795Z,93.50
2018-05-18T23:56:37.293Z,93.70
2018-05-18T23:59:04.881Z,93.80
